sensor_id;sensor_type;location;lat;lon;timestamp;P1;durP1;ratioP1;P2;durP2;ratioP2
71814;SDS011;59659;41.520;23.794;2024-01-15T00:00:28;7.13;;;5.45;;
71814;SDS011;59659;41.520;23.794;2024-01-15T00:01:42;10.55;;;6.10;;
71814;SDS011;59659;41.520;23.794;2024-01-15T00:02:55;16.85;;;5.63;;
71814;SDS011;59659;41.520;23.794;2024-01-15T00:04:06;17.00;;;6.60;;
71814;SDS011;59659;41.520;23.794;2024-01-15T00:05:18;8.70;;;6.38;;
71814;SDS011;59659;41.520;23.794;2024-01-15T00:06:30;12.05;;;6.65;;
71814;SDS011;59659;41.520;23.794;2024-01-15T00:07:41;7.57;;;5.50;;
71814;SDS011;59659;41.520;23.794;2024-01-15T00:08:53;12.55;;;6.25;;
71814;SDS011;59659;41.520;23.794;2024-01-15T00:10:04;16.65;;;8.23;;
71814;SDS011;59659;41.520;23.794;2024-01-15T00:11:17;10.43;;;4.28;;
71814;SDS011;59659;41.520;23.794;2024-01-15T00:12:28;10.02;;;4.45;;
71814;SDS011;59659;41.520;23.794;2024-01-15T00:13:40;10.40;;;5.25;;
71814;SDS011;59659;41.520;23.794;2024-01-15T00:14:51;15.10;;;5.05;;
71814;SDS011;59659;41.520;23.794;2024-01-15T00:16:04;7.63;;;4.88;;
71814;SDS011;59659;41.520;23.794;2024-01-15T00:17:15;10.30;;;5.45;;
71814;SDS011;59659;41.520;23.794;2024-01-15T00:18:27;9.43;;;4.85;;
71814;SDS011;59659;41.520;23.794;2024-01-15T00:19:38;9.65;;;5.80;;
71814;SDS011;59659;41.520;23.794;2024-01-15T00:20:50;13.60;;;5.65;;
71814;SDS011;59659;41.520;23.794;2024-01-15T00:22:02;16.10;;;5.10;;
71814;SDS011;59659;41.520;23.794;2024-01-15T00:23:13;7.13;;;5.68;;
71814;SDS011;59659;41.520;23.794;2024-01-15T00:24:25;13.80;;;5.88;;
71814;SDS011;59659;41.520;23.794;2024-01-15T00:25:36;11.95;;;5.57;;
71814;SDS011;59659;41.520;23.794;2024-01-15T00:26:48;14.77;;;7.13;;
71814;SDS011;59659;41.520;23.794;2024-01-15T00:27:59;24.15;;;6.05;;
71814;SDS011;59659;41.520;23.794;2024-01-15T00:29:11;13.27;;;6.63;;
71814;SDS011;59659;41.520;23.794;2024-01-15T00:30:22;13.43;;;5.53;;
71814;SDS011;59659;41.520;23.794;2024-01-15T00:31:34;12.93;;;5.68;;
71814;SDS011;59659;41.520;23.794;2024-01-15T00:32:46;16.45;;;8.32;;
71814;SDS011;59659;41.520;23.794;2024-01-15T00:33:57;11.55;;;7.18;;
71814;SDS011;59659;41.520;23.794;2024-01-15T00:35:09;18.77;;;9.82;;
71814;SDS011;59659;41.520;23.794;2024-01-15T00:36:21;16.40;;;8.07;;
71814;SDS011;59659;41.520;23.794;2024-01-15T00:37:33;18.40;;;8.68;;
71814;SDS011;59659;41.520;23.794;2024-01-15T00:38:44;16.10;;;7.75;;
71814;SDS011;59659;41.520;23.794;2024-01-15T00:39:56;15.07;;;7.90;;
71814;SDS011;59659;41.520;23.794;2024-01-15T00:41:07;19.98;;;8.05;;
71814;SDS011;59659;41.520;23.794;2024-01-15T00:42:19;19.10;;;9.38;;
71814;SDS011;59659;41.520;23.794;2024-01-15T00:43:30;16.90;;;8.57;;
71814;SDS011;59659;41.520;23.794;2024-01-15T00:44:42;25.05;;;7.75;;
71814;SDS011;59659;41.520;23.794;2024-01-15T00:45:53;14.95;;;7.28;;
71814;SDS011;59659;41.520;23.794;2024-01-15T00:47:05;15.15;;;9.10;;
71814;SDS011;59659;41.520;23.794;2024-01-15T00:48:17;17.33;;;9.05;;
71814;SDS011;59659;41.520;23.794;2024-01-15T00:49:28;14.63;;;9.00;;
71814;SDS011;59659;41.520;23.794;2024-01-15T00:50:40;13.20;;;8.20;;
71814;SDS011;59659;41.520;23.794;2024-01-15T00:51:51;16.05;;;7.40;;
71814;SDS011;59659;41.520;23.794;2024-01-15T00:53:03;15.85;;;7.75;;
71814;SDS011;59659;41.520;23.794;2024-01-15T00:54:15;20.45;;;6.82;;
71814;SDS011;59659;41.520;23.794;2024-01-15T00:55:27;13.15;;;7.75;;
71814;SDS011;59659;41.520;23.794;2024-01-15T00:56:39;16.60;;;8.05;;
71814;SDS011;59659;41.520;23.794;2024-01-15T00:57:50;18.23;;;7.32;;
71814;SDS011;59659;41.520;23.794;2024-01-15T00:59:02;14.00;;;7.32;;
71814;SDS011;59659;41.520;23.794;2024-01-15T01:00:14;12.88;;;5.95;;
71814;SDS011;59659;41.520;23.794;2024-01-15T01:01:25;17.80;;;7.50;;
71814;SDS011;59659;41.520;23.794;2024-01-15T01:02:37;13.65;;;7.38;;
71814;SDS011;59659;41.520;23.794;2024-01-15T01:03:49;17.08;;;9.10;;
71814;SDS011;59659;41.520;23.794;2024-01-15T01:05:00;25.55;;;10.13;;
71814;SDS011;59659;41.520;23.794;2024-01-15T01:06:12;9.95;;;6.28;;
71814;SDS011;59659;41.520;23.794;2024-01-15T01:07:23;18.02;;;8.30;;
71814;SDS011;59659;41.520;23.794;2024-01-15T01:08:35;17.83;;;7.68;;
71814;SDS011;59659;41.520;23.794;2024-01-15T01:09:47;19.42;;;7.45;;
71814;SDS011;59659;41.520;23.794;2024-01-15T01:10:59;15.13;;;6.32;;
71814;SDS011;59659;41.520;23.794;2024-01-15T01:12:11;18.77;;;8.93;;
71814;SDS011;59659;41.520;23.794;2024-01-15T01:13:23;9.25;;;7.20;;
71814;SDS011;59659;41.520;23.794;2024-01-15T01:14:34;14.02;;;6.38;;
71814;SDS011;59659;41.520;23.794;2024-01-15T01:15:46;13.43;;;5.82;;
71814;SDS011;59659;41.520;23.794;2024-01-15T01:16:58;15.20;;;7.40;;
71814;SDS011;59659;41.520;23.794;2024-01-15T01:18:09;12.32;;;5.43;;
71814;SDS011;59659;41.520;23.794;2024-01-15T01:19:21;16.92;;;6.22;;
71814;SDS011;59659;41.520;23.794;2024-01-15T01:20:33;15.35;;;7.63;;
71814;SDS011;59659;41.520;23.794;2024-01-15T01:21:44;9.88;;;6.07;;
71814;SDS011;59659;41.520;23.794;2024-01-15T01:22:56;15.50;;;5.65;;
71814;SDS011;59659;41.520;23.794;2024-01-15T01:24:08;16.35;;;9.15;;
71814;SDS011;59659;41.520;23.794;2024-01-15T01:25:19;17.80;;;9.63;;
71814;SDS011;59659;41.520;23.794;2024-01-15T01:26:31;16.85;;;8.40;;
71814;SDS011;59659;41.520;23.794;2024-01-15T01:27:43;20.33;;;8.77;;
71814;SDS011;59659;41.520;23.794;2024-01-15T01:28:54;13.13;;;7.50;;
71814;SDS011;59659;41.520;23.794;2024-01-15T01:30:06;23.23;;;9.00;;
71814;SDS011;59659;41.520;23.794;2024-01-15T01:31:18;23.10;;;11.15;;
71814;SDS011;59659;41.520;23.794;2024-01-15T01:32:29;15.70;;;7.32;;
71814;SDS011;59659;41.520;23.794;2024-01-15T01:33:41;16.90;;;7.15;;
71814;SDS011;59659;41.520;23.794;2024-01-15T01:34:53;14.30;;;8.40;;
71814;SDS011;59659;41.520;23.794;2024-01-15T01:36:06;15.43;;;6.97;;
71814;SDS011;59659;41.520;23.794;2024-01-15T01:37:18;14.57;;;6.25;;
71814;SDS011;59659;41.520;23.794;2024-01-15T01:38:30;25.77;;;7.65;;
71814;SDS011;59659;41.520;23.794;2024-01-15T01:39:41;13.32;;;6.50;;
71814;SDS011;59659;41.520;23.794;2024-01-15T01:40:53;10.13;;;6.47;;
71814;SDS011;59659;41.520;23.794;2024-01-15T01:42:05;16.85;;;7.78;;
71814;SDS011;59659;41.520;23.794;2024-01-15T01:43:16;12.20;;;6.60;;
71814;SDS011;59659;41.520;23.794;2024-01-15T01:44:29;13.27;;;7.20;;
71814;SDS011;59659;41.520;23.794;2024-01-15T01:45:40;12.77;;;7.93;;
71814;SDS011;59659;41.520;23.794;2024-01-15T01:46:52;14.82;;;7.88;;
71814;SDS011;59659;41.520;23.794;2024-01-15T01:48:04;17.40;;;8.10;;
71814;SDS011;59659;41.520;23.794;2024-01-15T01:49:16;11.23;;;8.23;;
71814;SDS011;59659;41.520;23.794;2024-01-15T01:50:31;13.38;;;6.45;;
71814;SDS011;59659;41.520;23.794;2024-01-15T01:51:43;12.68;;;7.40;;
71814;SDS011;59659;41.520;23.794;2024-01-15T01:52:55;22.23;;;8.55;;
71814;SDS011;59659;41.520;23.794;2024-01-15T01:54:07;22.70;;;8.55;;
71814;SDS011;59659;41.520;23.794;2024-01-15T01:55:19;14.77;;;8.65;;
71814;SDS011;59659;41.520;23.794;2024-01-15T01:56:32;11.10;;;6.95;;
71814;SDS011;59659;41.520;23.794;2024-01-15T01:57:44;16.15;;;9.52;;
71814;SDS011;59659;41.520;23.794;2024-01-15T01:58:56;19.50;;;7.25;;
71814;SDS011;59659;41.520;23.794;2024-01-15T02:00:07;13.98;;;7.18;;
71814;SDS011;59659;41.520;23.794;2024-01-15T02:01:19;14.18;;;7.13;;
71814;SDS011;59659;41.520;23.794;2024-01-15T02:02:31;13.10;;;7.43;;
71814;SDS011;59659;41.520;23.794;2024-01-15T02:03:43;12.70;;;6.45;;
71814;SDS011;59659;41.520;23.794;2024-01-15T02:04:55;17.73;;;9.20;;
71814;SDS011;59659;41.520;23.794;2024-01-15T02:06:06;17.20;;;8.02;;
71814;SDS011;59659;41.520;23.794;2024-01-15T02:07:18;24.63;;;8.90;;
71814;SDS011;59659;41.520;23.794;2024-01-15T02:08:30;18.77;;;7.70;;
71814;SDS011;59659;41.520;23.794;2024-01-15T02:09:42;17.20;;;9.00;;
71814;SDS011;59659;41.520;23.794;2024-01-15T02:10:53;17.23;;;9.10;;
71814;SDS011;59659;41.520;23.794;2024-01-15T02:12:05;21.77;;;10.80;;
71814;SDS011;59659;41.520;23.794;2024-01-15T02:13:18;17.55;;;8.93;;
71814;SDS011;59659;41.520;23.794;2024-01-15T02:14:29;21.25;;;10.70;;
71814;SDS011;59659;41.520;23.794;2024-01-15T02:15:41;17.67;;;10.30;;
71814;SDS011;59659;41.520;23.794;2024-01-15T02:16:53;33.63;;;9.27;;
71814;SDS011;59659;41.520;23.794;2024-01-15T02:18:05;19.98;;;7.88;;
71814;SDS011;59659;41.520;23.794;2024-01-15T02:19:18;22.60;;;10.32;;
71814;SDS011;59659;41.520;23.794;2024-01-15T02:20:30;19.80;;;11.27;;
71814;SDS011;59659;41.520;23.794;2024-01-15T02:21:41;24.30;;;10.88;;
71814;SDS011;59659;41.520;23.794;2024-01-15T02:22:53;28.88;;;10.70;;
71814;SDS011;59659;41.520;23.794;2024-01-15T02:24:05;22.05;;;10.38;;
71814;SDS011;59659;41.520;23.794;2024-01-15T02:25:16;18.13;;;8.85;;
71814;SDS011;59659;41.520;23.794;2024-01-15T02:26:28;12.77;;;8.18;;
71814;SDS011;59659;41.520;23.794;2024-01-15T02:27:39;11.38;;;7.32;;
71814;SDS011;59659;41.520;23.794;2024-01-15T02:28:52;14.70;;;8.00;;
71814;SDS011;59659;41.520;23.794;2024-01-15T02:30:04;18.35;;;8.13;;
71814;SDS011;59659;41.520;23.794;2024-01-15T02:31:16;11.52;;;7.35;;
71814;SDS011;59659;41.520;23.794;2024-01-15T02:32:28;13.40;;;8.77;;
71814;SDS011;59659;41.520;23.794;2024-01-15T02:33:39;14.07;;;8.15;;
71814;SDS011;59659;41.520;23.794;2024-01-15T02:34:51;12.00;;;6.80;;
71814;SDS011;59659;41.520;23.794;2024-01-15T02:36:03;18.45;;;7.75;;
71814;SDS011;59659;41.520;23.794;2024-01-15T02:37:14;18.10;;;7.78;;
71814;SDS011;59659;41.520;23.794;2024-01-15T02:38:26;16.55;;;7.93;;
71814;SDS011;59659;41.520;23.794;2024-01-15T02:39:37;23.60;;;8.55;;
71814;SDS011;59659;41.520;23.794;2024-01-15T02:40:49;13.07;;;8.75;;
71814;SDS011;59659;41.520;23.794;2024-01-15T02:42:01;25.58;;;9.18;;
71814;SDS011;59659;41.520;23.794;2024-01-15T02:43:12;21.83;;;8.88;;
71814;SDS011;59659;41.520;23.794;2024-01-15T02:44:25;20.55;;;8.95;;
71814;SDS011;59659;41.520;23.794;2024-01-15T02:45:36;13.27;;;7.22;;
71814;SDS011;59659;41.520;23.794;2024-01-15T02:46:48;14.65;;;6.78;;
71814;SDS011;59659;41.520;23.794;2024-01-15T02:47:59;20.25;;;6.95;;
71814;SDS011;59659;41.520;23.794;2024-01-15T02:49:11;20.17;;;6.95;;
71814;SDS011;59659;41.520;23.794;2024-01-15T02:50:23;20.75;;;9.43;;
71814;SDS011;59659;41.520;23.794;2024-01-15T02:51:34;13.27;;;6.45;;
71814;SDS011;59659;41.520;23.794;2024-01-15T02:52:46;13.80;;;6.65;;
71814;SDS011;59659;41.520;23.794;2024-01-15T02:53:58;17.55;;;7.80;;
71814;SDS011;59659;41.520;23.794;2024-01-15T02:55:10;11.88;;;5.90;;
71814;SDS011;59659;41.520;23.794;2024-01-15T02:56:21;10.35;;;5.70;;
71814;SDS011;59659;41.520;23.794;2024-01-15T02:57:33;17.67;;;8.30;;
71814;SDS011;59659;41.520;23.794;2024-01-15T02:58:44;8.43;;;4.63;;
71814;SDS011;59659;41.520;23.794;2024-01-15T02:59:56;16.95;;;7.45;;
71814;SDS011;59659;41.520;23.794;2024-01-15T03:01:08;13.48;;;7.45;;
71814;SDS011;59659;41.520;23.794;2024-01-15T03:02:19;14.00;;;6.93;;
71814;SDS011;59659;41.520;23.794;2024-01-15T03:03:31;12.55;;;5.70;;
71814;SDS011;59659;41.520;23.794;2024-01-15T03:04:44;10.02;;;6.13;;
71814;SDS011;59659;41.520;23.794;2024-01-15T03:05:56;26.13;;;12.85;;
71814;SDS011;59659;41.520;23.794;2024-01-15T03:07:07;48.40;;;18.52;;
71814;SDS011;59659;41.520;23.794;2024-01-15T03:08:19;42.40;;;19.10;;
71814;SDS011;59659;41.520;23.794;2024-01-15T03:09:30;56.20;;;21.83;;
71814;SDS011;59659;41.520;23.794;2024-01-15T03:10:42;29.27;;;16.05;;
71814;SDS011;59659;41.520;23.794;2024-01-15T03:11:54;37.60;;;13.20;;
71814;SDS011;59659;41.520;23.794;2024-01-15T03:13:06;24.15;;;12.15;;
71814;SDS011;59659;41.520;23.794;2024-01-15T03:14:17;27.80;;;13.20;;
71814;SDS011;59659;41.520;23.794;2024-01-15T03:15:29;28.20;;;11.93;;
71814;SDS011;59659;41.520;23.794;2024-01-15T03:16:40;24.05;;;10.50;;
71814;SDS011;59659;41.520;23.794;2024-01-15T03:17:53;17.00;;;8.38;;
71814;SDS011;59659;41.520;23.794;2024-01-15T03:19:04;17.42;;;8.77;;
71814;SDS011;59659;41.520;23.794;2024-01-15T03:20:16;22.85;;;9.93;;
71814;SDS011;59659;41.520;23.794;2024-01-15T03:21:27;17.90;;;9.77;;
71814;SDS011;59659;41.520;23.794;2024-01-15T03:22:39;19.02;;;9.32;;
71814;SDS011;59659;41.520;23.794;2024-01-15T03:23:50;11.95;;;5.40;;
71814;SDS011;59659;41.520;23.794;2024-01-15T03:25:03;17.15;;;8.25;;
71814;SDS011;59659;41.520;23.794;2024-01-15T03:26:15;13.93;;;7.88;;
71814;SDS011;59659;41.520;23.794;2024-01-15T03:27:26;23.52;;;9.38;;
71814;SDS011;59659;41.520;23.794;2024-01-15T03:28:38;17.33;;;9.30;;
71814;SDS011;59659;41.520;23.794;2024-01-15T03:29:49;21.55;;;9.10;;
71814;SDS011;59659;41.520;23.794;2024-01-15T03:31:01;20.02;;;9.98;;
71814;SDS011;59659;41.520;23.794;2024-01-15T03:32:13;17.48;;;9.05;;
71814;SDS011;59659;41.520;23.794;2024-01-15T03:33:24;21.77;;;9.77;;
71814;SDS011;59659;41.520;23.794;2024-01-15T03:34:36;19.88;;;8.13;;
71814;SDS011;59659;41.520;23.794;2024-01-15T03:35:48;34.28;;;15.65;;
71814;SDS011;59659;41.520;23.794;2024-01-15T03:37:00;47.10;;;20.33;;
71814;SDS011;59659;41.520;23.794;2024-01-15T03:38:11;38.38;;;18.70;;
71814;SDS011;59659;41.520;23.794;2024-01-15T03:39:23;50.33;;;18.10;;
71814;SDS011;59659;41.520;23.794;2024-01-15T03:40:34;62.47;;;20.70;;
71814;SDS011;59659;41.520;23.794;2024-01-15T03:41:46;54.47;;;18.58;;
71814;SDS011;59659;41.520;23.794;2024-01-15T03:42:58;44.67;;;18.63;;
71814;SDS011;59659;41.520;23.794;2024-01-15T03:44:09;48.22;;;20.25;;
71814;SDS011;59659;41.520;23.794;2024-01-15T03:45:21;30.63;;;12.25;;
71814;SDS011;59659;41.520;23.794;2024-01-15T03:46:32;31.30;;;13.23;;
71814;SDS011;59659;41.520;23.794;2024-01-15T03:47:44;49.53;;;16.85;;
71814;SDS011;59659;41.520;23.794;2024-01-15T03:48:56;53.60;;;17.98;;
71814;SDS011;59659;41.520;23.794;2024-01-15T03:50:08;47.80;;;17.23;;
71814;SDS011;59659;41.520;23.794;2024-01-15T03:51:19;67.57;;;20.15;;
71814;SDS011;59659;41.520;23.794;2024-01-15T03:52:31;46.85;;;19.52;;
71814;SDS011;59659;41.520;23.794;2024-01-15T03:53:42;48.45;;;20.25;;
71814;SDS011;59659;41.520;23.794;2024-01-15T03:54:54;51.88;;;21.52;;
71814;SDS011;59659;41.520;23.794;2024-01-15T03:56:06;46.55;;;20.58;;
71814;SDS011;59659;41.520;23.794;2024-01-15T03:57:17;58.88;;;17.55;;
71814;SDS011;59659;41.520;23.794;2024-01-15T03:58:29;43.00;;;19.27;;
71814;SDS011;59659;41.520;23.794;2024-01-15T03:59:40;42.83;;;16.85;;
71814;SDS011;59659;41.520;23.794;2024-01-15T04:00:53;51.28;;;18.30;;
71814;SDS011;59659;41.520;23.794;2024-01-15T04:02:04;32.30;;;16.15;;
71814;SDS011;59659;41.520;23.794;2024-01-15T04:03:16;31.77;;;14.60;;
71814;SDS011;59659;41.520;23.794;2024-01-15T04:04:28;61.70;;;14.40;;
71814;SDS011;59659;41.520;23.794;2024-01-15T04:05:40;39.70;;;13.98;;
71814;SDS011;59659;41.520;23.794;2024-01-15T04:06:51;36.33;;;14.30;;
71814;SDS011;59659;41.520;23.794;2024-01-15T04:08:03;17.15;;;10.32;;
71814;SDS011;59659;41.520;23.794;2024-01-15T04:09:15;31.23;;;10.82;;
71814;SDS011;59659;41.520;23.794;2024-01-15T04:10:27;35.25;;;11.23;;
71814;SDS011;59659;41.520;23.794;2024-01-15T04:11:38;40.97;;;16.80;;
71814;SDS011;59659;41.520;23.794;2024-01-15T04:12:50;33.67;;;11.73;;
71814;SDS011;59659;41.520;23.794;2024-01-15T04:14:02;34.40;;;13.07;;
71814;SDS011;59659;41.520;23.794;2024-01-15T04:15:13;31.00;;;12.07;;
71814;SDS011;59659;41.520;23.794;2024-01-15T04:16:25;31.17;;;11.50;;
71814;SDS011;59659;41.520;23.794;2024-01-15T04:17:36;37.28;;;14.38;;
71814;SDS011;59659;41.520;23.794;2024-01-15T04:18:48;26.77;;;10.60;;
71814;SDS011;59659;41.520;23.794;2024-01-15T04:20:00;17.30;;;10.90;;
71814;SDS011;59659;41.520;23.794;2024-01-15T04:21:11;12.70;;;7.10;;
71814;SDS011;59659;41.520;23.794;2024-01-15T04:22:23;18.90;;;7.50;;
71814;SDS011;59659;41.520;23.794;2024-01-15T04:23:34;14.73;;;6.85;;
71814;SDS011;59659;41.520;23.794;2024-01-15T04:24:46;14.40;;;9.48;;
71814;SDS011;59659;41.520;23.794;2024-01-15T04:25:57;11.13;;;6.47;;
71814;SDS011;59659;41.520;23.794;2024-01-15T04:27:09;20.95;;;9.43;;
71814;SDS011;59659;41.520;23.794;2024-01-15T04:28:20;12.70;;;8.60;;
71814;SDS011;59659;41.520;23.794;2024-01-15T04:29:32;13.90;;;7.18;;
71814;SDS011;59659;41.520;23.794;2024-01-15T04:30:44;14.00;;;7.50;;
71814;SDS011;59659;41.520;23.794;2024-01-15T04:31:55;8.85;;;6.03;;
71814;SDS011;59659;41.520;23.794;2024-01-15T04:33:07;10.63;;;4.70;;
71814;SDS011;59659;41.520;23.794;2024-01-15T04:34:19;15.55;;;7.05;;
71814;SDS011;59659;41.520;23.794;2024-01-15T04:35:30;14.15;;;7.28;;
71814;SDS011;59659;41.520;23.794;2024-01-15T04:36:42;16.00;;;8.98;;
71814;SDS011;59659;41.520;23.794;2024-01-15T04:37:54;16.10;;;7.30;;
71814;SDS011;59659;41.520;23.794;2024-01-15T04:39:05;16.73;;;8.73;;
71814;SDS011;59659;41.520;23.794;2024-01-15T04:40:17;14.13;;;7.65;;
71814;SDS011;59659;41.520;23.794;2024-01-15T04:41:28;14.55;;;6.68;;
71814;SDS011;59659;41.520;23.794;2024-01-15T04:42:40;15.57;;;7.60;;
71814;SDS011;59659;41.520;23.794;2024-01-15T04:43:52;17.95;;;5.72;;
71814;SDS011;59659;41.520;23.794;2024-01-15T04:45:03;10.13;;;5.72;;
71814;SDS011;59659;41.520;23.794;2024-01-15T04:46:16;13.52;;;7.15;;
71814;SDS011;59659;41.520;23.794;2024-01-15T04:47:27;21.05;;;7.18;;
71814;SDS011;59659;41.520;23.794;2024-01-15T04:48:39;16.20;;;7.93;;
71814;SDS011;59659;41.520;23.794;2024-01-15T04:49:50;21.95;;;11.25;;
71814;SDS011;59659;41.520;23.794;2024-01-15T04:51:05;31.77;;;14.23;;
71814;SDS011;59659;41.520;23.794;2024-01-15T04:52:17;27.35;;;14.80;;
71814;SDS011;59659;41.520;23.794;2024-01-15T04:53:29;43.05;;;15.27;;
71814;SDS011;59659;41.520;23.794;2024-01-15T04:54:40;40.83;;;15.95;;
71814;SDS011;59659;41.520;23.794;2024-01-15T04:55:52;32.53;;;15.50;;
71814;SDS011;59659;41.520;23.794;2024-01-15T04:57:03;36.67;;;19.70;;
71814;SDS011;59659;41.520;23.794;2024-01-15T04:58:15;43.38;;;20.05;;
71814;SDS011;59659;41.520;23.794;2024-01-15T04:59:26;51.83;;;20.30;;
71814;SDS011;59659;41.520;23.794;2024-01-15T05:00:38;32.08;;;14.63;;
71814;SDS011;59659;41.520;23.794;2024-01-15T05:01:50;42.60;;;16.73;;
71814;SDS011;59659;41.520;23.794;2024-01-15T05:03:02;32.60;;;15.45;;
71814;SDS011;59659;41.520;23.794;2024-01-15T05:04:14;31.48;;;16.48;;
71814;SDS011;59659;41.520;23.794;2024-01-15T05:05:26;38.92;;;19.80;;
71814;SDS011;59659;41.520;23.794;2024-01-15T05:06:37;34.72;;;15.05;;
71814;SDS011;59659;41.520;23.794;2024-01-15T05:07:49;55.85;;;18.55;;
71814;SDS011;59659;41.520;23.794;2024-01-15T05:09:00;29.58;;;17.67;;
71814;SDS011;59659;41.520;23.794;2024-01-15T05:10:12;34.17;;;16.27;;
71814;SDS011;59659;41.520;23.794;2024-01-15T05:11:24;31.50;;;15.57;;
71814;SDS011;59659;41.520;23.794;2024-01-15T05:12:35;40.25;;;16.52;;
71814;SDS011;59659;41.520;23.794;2024-01-15T05:13:47;49.10;;;20.52;;
71814;SDS011;59659;41.520;23.794;2024-01-15T05:14:58;41.92;;;19.83;;
71814;SDS011;59659;41.520;23.794;2024-01-15T05:16:10;56.95;;;23.48;;
71814;SDS011;59659;41.520;23.794;2024-01-15T05:17:21;44.15;;;19.42;;
71814;SDS011;59659;41.520;23.794;2024-01-15T05:18:33;40.08;;;18.33;;
71814;SDS011;59659;41.520;23.794;2024-01-15T05:19:45;44.60;;;20.25;;
71814;SDS011;59659;41.520;23.794;2024-01-15T05:20:57;40.25;;;18.65;;
71814;SDS011;59659;41.520;23.794;2024-01-15T05:22:08;34.95;;;16.42;;
71814;SDS011;59659;41.520;23.794;2024-01-15T05:23:20;41.65;;;21.20;;
71814;SDS011;59659;41.520;23.794;2024-01-15T05:24:31;39.72;;;21.80;;
71814;SDS011;59659;41.520;23.794;2024-01-15T05:25:43;41.85;;;21.27;;
71814;SDS011;59659;41.520;23.794;2024-01-15T05:26:54;55.22;;;23.40;;
71814;SDS011;59659;41.520;23.794;2024-01-15T05:28:06;53.33;;;24.58;;
71814;SDS011;59659;41.520;23.794;2024-01-15T05:29:17;66.47;;;28.90;;
71814;SDS011;59659;41.520;23.794;2024-01-15T05:30:29;51.28;;;26.00;;
71814;SDS011;59659;41.520;23.794;2024-01-15T05:31:41;42.28;;;21.27;;
71814;SDS011;59659;41.520;23.794;2024-01-15T05:32:53;41.30;;;21.25;;
71814;SDS011;59659;41.520;23.794;2024-01-15T05:34:04;63.67;;;25.27;;
71814;SDS011;59659;41.520;23.794;2024-01-15T05:35:16;53.75;;;21.40;;
71814;SDS011;59659;41.520;23.794;2024-01-15T05:36:28;52.15;;;26.02;;
71814;SDS011;59659;41.520;23.794;2024-01-15T05:37:42;48.78;;;26.02;;
71814;SDS011;59659;41.520;23.794;2024-01-15T05:38:54;53.92;;;25.55;;
71814;SDS011;59659;41.520;23.794;2024-01-15T05:40:06;59.92;;;26.50;;
71814;SDS011;59659;41.520;23.794;2024-01-15T05:41:17;59.17;;;30.35;;
71814;SDS011;59659;41.520;23.794;2024-01-15T05:42:29;67.50;;;33.72;;
71814;SDS011;59659;41.520;23.794;2024-01-15T05:43:43;49.28;;;29.30;;
71814;SDS011;59659;41.520;23.794;2024-01-15T05:44:54;95.93;;;32.08;;
71814;SDS011;59659;41.520;23.794;2024-01-15T05:46:06;40.13;;;20.25;;
71814;SDS011;59659;41.520;23.794;2024-01-15T05:47:17;49.30;;;19.45;;
71814;SDS011;59659;41.520;23.794;2024-01-15T05:48:30;55.92;;;19.77;;
71814;SDS011;59659;41.520;23.794;2024-01-15T05:49:41;52.22;;;23.80;;
71814;SDS011;59659;41.520;23.794;2024-01-15T05:50:53;43.92;;;23.27;;
71814;SDS011;59659;41.520;23.794;2024-01-15T05:52:05;29.35;;;16.38;;
71814;SDS011;59659;41.520;23.794;2024-01-15T05:53:16;34.85;;;15.07;;
71814;SDS011;59659;41.520;23.794;2024-01-15T05:54:28;30.80;;;14.95;;
71814;SDS011;59659;41.520;23.794;2024-01-15T05:55:39;36.88;;;15.52;;
71814;SDS011;59659;41.520;23.794;2024-01-15T05:56:51;31.33;;;12.45;;
71814;SDS011;59659;41.520;23.794;2024-01-15T05:58:02;32.65;;;15.55;;
71814;SDS011;59659;41.520;23.794;2024-01-15T05:59:14;24.58;;;11.68;;
71814;SDS011;59659;41.520;23.794;2024-01-15T06:00:26;34.05;;;16.08;;
71814;SDS011;59659;41.520;23.794;2024-01-15T06:01:38;45.85;;;16.88;;
71814;SDS011;59659;41.520;23.794;2024-01-15T06:02:49;28.92;;;16.30;;
71814;SDS011;59659;41.520;23.794;2024-01-15T06:04:01;35.38;;;16.65;;
71814;SDS011;59659;41.520;23.794;2024-01-15T06:05:13;35.97;;;17.50;;
71814;SDS011;59659;41.520;23.794;2024-01-15T06:06:24;41.65;;;17.75;;
71814;SDS011;59659;41.520;23.794;2024-01-15T06:07:36;23.73;;;13.13;;
71814;SDS011;59659;41.520;23.794;2024-01-15T06:08:48;27.52;;;15.02;;
71814;SDS011;59659;41.520;23.794;2024-01-15T06:09:59;24.88;;;14.82;;
71814;SDS011;59659;41.520;23.794;2024-01-15T06:11:11;29.02;;;14.15;;
71814;SDS011;59659;41.520;23.794;2024-01-15T06:12:23;34.75;;;14.52;;
71814;SDS011;59659;41.520;23.794;2024-01-15T06:13:34;23.55;;;12.80;;
71814;SDS011;59659;41.520;23.794;2024-01-15T06:14:46;23.92;;;13.40;;
71814;SDS011;59659;41.520;23.794;2024-01-15T06:15:57;31.73;;;15.75;;
71814;SDS011;59659;41.520;23.794;2024-01-15T06:17:09;36.58;;;15.35;;
71814;SDS011;59659;41.520;23.794;2024-01-15T06:18:21;33.58;;;15.30;;
71814;SDS011;59659;41.520;23.794;2024-01-15T06:19:32;31.65;;;14.07;;
71814;SDS011;59659;41.520;23.794;2024-01-15T06:20:44;28.27;;;13.88;;
71814;SDS011;59659;41.520;23.794;2024-01-15T06:21:56;27.98;;;14.20;;
71814;SDS011;59659;41.520;23.794;2024-01-15T06:23:07;37.65;;;16.67;;
71814;SDS011;59659;41.520;23.794;2024-01-15T06:24:19;33.22;;;13.27;;
71814;SDS011;59659;41.520;23.794;2024-01-15T06:25:31;23.30;;;14.68;;
71814;SDS011;59659;41.520;23.794;2024-01-15T06:26:43;27.77;;;12.77;;
71814;SDS011;59659;41.520;23.794;2024-01-15T06:27:54;29.70;;;14.13;;
71814;SDS011;59659;41.520;23.794;2024-01-15T06:29:06;34.50;;;14.80;;
71814;SDS011;59659;41.520;23.794;2024-01-15T06:30:18;33.80;;;15.02;;
71814;SDS011;59659;41.520;23.794;2024-01-15T06:31:29;45.50;;;18.63;;
71814;SDS011;59659;41.520;23.794;2024-01-15T06:32:41;39.40;;;22.75;;
71814;SDS011;59659;41.520;23.794;2024-01-15T06:33:53;49.40;;;22.33;;
71814;SDS011;59659;41.520;23.794;2024-01-15T06:35:04;32.45;;;15.45;;
71814;SDS011;59659;41.520;23.794;2024-01-15T06:36:16;43.42;;;19.92;;
71814;SDS011;59659;41.520;23.794;2024-01-15T06:37:28;47.10;;;20.77;;
71814;SDS011;59659;41.520;23.794;2024-01-15T06:38:39;43.30;;;17.80;;
71814;SDS011;59659;41.520;23.794;2024-01-15T06:39:51;41.92;;;17.70;;
71814;SDS011;59659;41.520;23.794;2024-01-15T06:41:02;40.38;;;17.33;;
71814;SDS011;59659;41.520;23.794;2024-01-15T06:42:14;30.05;;;15.75;;
71814;SDS011;59659;41.520;23.794;2024-01-15T06:43:25;44.92;;;20.45;;
71814;SDS011;59659;41.520;23.794;2024-01-15T06:44:37;44.40;;;17.60;;
71814;SDS011;59659;41.520;23.794;2024-01-15T06:45:48;43.00;;;17.52;;
71814;SDS011;59659;41.520;23.794;2024-01-15T06:47:00;29.98;;;14.43;;
71814;SDS011;59659;41.520;23.794;2024-01-15T06:48:14;35.75;;;14.65;;
71814;SDS011;59659;41.520;23.794;2024-01-15T06:49:28;44.17;;;19.48;;
71814;SDS011;59659;41.520;23.794;2024-01-15T06:50:40;32.67;;;16.65;;
71814;SDS011;59659;41.520;23.794;2024-01-15T06:51:52;37.15;;;16.75;;
71814;SDS011;59659;41.520;23.794;2024-01-15T06:53:04;33.30;;;16.23;;
71814;SDS011;59659;41.520;23.794;2024-01-15T06:54:15;51.70;;;24.08;;
71814;SDS011;59659;41.520;23.794;2024-01-15T06:55:27;65.20;;;28.17;;
71814;SDS011;59659;41.520;23.794;2024-01-15T06:56:39;72.47;;;36.50;;